Terminal Aerodrome Forecast
Issued by NWS

Home | Current Version | Previous Version | Text Only | Print | Product List | Glossary On
Versions: 1 2 3 4 5 6 7 8 9 10 11 12 13 14 15 16 17 18 19 20 21
270
FTUS43 KICT 201545 AAA
TAFCNU
TAF AMD
KCNU 201545Z 2016/2112 16009KT 4SM BR SCT006 BKN020
     FM202100 19009KT P6SM SCT035=

USA.gov is the U.S. government's official web portal to all federal, state and local government web resources and services.